KVVV Airport (Ortonville Muni-Martinson Field) Information

FAA: VVV - ICAO: KVVV

KVVV Airport Location

State Minnesota
County Big Stone
City Ortonville
KVVV Airport is 1 miles southeast of Ortonville, MN.
Latitude 45-18-14.8660N
Longitude 096-25-28.5920W
Elevation 1,101ft

KVVV Airport METARs

METAR KVVV 251655Z AUTO 14009KT 10SM CLR 07/02 A3015 RMK AO2
Altimeter 30.15"
Temperature 7.0°C (44.6°F)
Wind 140° at 9KT
Clouds Skies are clear.
Visibility 10.0mi
Time observed: 2021-10-25T16:55:00Z

KVVV Airport Details

Status Operational
Activation December 1945
Ownership Public
Usage Public
Chart TWIN CITIES
ATC on-site No
Beacon schedule sunset-sunrise
Beacon color clear green

KVVV Airport Contacts

Owner CITY OF ORTONVILLE
Owner address 315 MADISON AVE., ORTONVILLE, MN 56278
Owner phone 320-839-3428
Manager JOHN P. MERTESDORF
Manager address 46386 471 LANE, NICOLLET, MN 56074
Manager phone 507-232-3328

KVVV Airport (Ortonville Muni-Martinson Field) Radio Frequencies

KVVV (Airport) Radio Frequencies

UNICOM 122.8
Common traffic advisory frequency (CTAF) 122.8